createdAt,value
2019-05-01T00:02:33.268Z,37.67
2019-05-01T00:05:14.599Z,36.40
2019-05-01T00:07:44.349Z,37.83
2019-05-01T00:10:14.614Z,34.20
2019-05-01T00:12:44.375Z,38.63
2019-05-01T00:15:14.825Z,35.60
2019-05-01T00:17:44.544Z,38.60
2019-05-01T00:20:14.827Z,37.20
2019-05-01T00:22:44.762Z,38.43
2019-05-01T00:25:14.523Z,37.77
2019-05-01T00:27:45.637Z,36.23
2019-05-01T00:30:29.331Z,34.50
2019-05-01T00:32:49.761Z,32.90
2019-05-01T00:35:19.480Z,33.93
2019-05-01T00:37:49.367Z,36.40
2019-05-01T00:40:19.279Z,33.15
2019-05-01T00:42:50.085Z,37.73
2019-05-01T00:45:20.642Z,34.15
2019-05-01T00:47:50.564Z,38.07
2019-05-01T00:50:20.306Z,38.00
2019-05-01T00:52:49.991Z,37.13
2019-05-01T00:55:37.445Z,37.70
2019-05-01T00:58:22.781Z,35.53
2019-05-01T01:01:10.804Z,38.00
2019-05-01T01:03:41.347Z,36.77
2019-05-01T01:06:11.122Z,40.17
2019-05-01T01:08:40.854Z,37.40
2019-05-01T01:11:10.754Z,38.20
2019-05-01T01:13:40.653Z,38.70
2019-05-01T01:16:10.330Z,37.63
2019-05-01T01:18:40.005Z,37.80
2019-05-01T01:21:09.745Z,35.60
2019-05-01T01:23:39.545Z,41.33
2019-05-01T01:26:09.305Z,40.63
2019-05-01T01:28:38.992Z,39.67
2019-05-01T01:31:08.741Z,39.37
2019-05-01T01:33:38.535Z,40.17
2019-05-01T01:36:08.176Z,42.35
2019-05-01T01:38:37.877Z,38.77
2019-05-01T01:41:07.586Z,41.40
2019-05-01T01:44:05.328Z,42.17
2019-05-01T01:46:36.143Z,44.23
2019-05-01T01:49:05.895Z,44.60
2019-05-01T01:51:36.016Z,47.23
2019-05-01T01:54:06.133Z,39.33
2019-05-01T01:56:36.628Z,39.73
2019-05-01T01:59:06.592Z,39.70
2019-05-01T02:02:04.558Z,37.33
2019-05-01T02:05:11.568Z,38.23
2019-05-01T02:07:41.434Z,38.70
2019-05-01T02:10:11.414Z,37.80
2019-05-01T02:12:41.825Z,42.07
2019-05-01T02:15:12.873Z,40.30
2019-05-01T02:17:42.470Z,38.03
2019-05-01T02:20:12.489Z,39.27
2019-05-01T02:22:42.450Z,39.63
2019-05-01T02:25:13.426Z,40.73
2019-05-01T02:27:48.952Z,40.97
2019-05-01T02:30:20.216Z,43.27
2019-05-01T02:32:50.488Z,40.05
2019-05-01T02:35:20.358Z,38.63
2019-05-01T02:37:51.386Z,38.38
2019-05-01T02:40:56.541Z,41.80
2019-05-01T02:43:28.553Z,42.17
2019-05-01T02:45:59.857Z,41.90
2019-05-01T02:48:33.804Z,38.00
2019-05-01T02:51:04.772Z,36.53
2019-05-01T02:53:36.921Z,38.53
2019-05-01T02:56:19.385Z,39.33
2019-05-01T02:58:51.677Z,42.17
2019-05-01T03:01:22.068Z,39.57
2019-05-01T03:03:52.253Z,41.57
2019-05-01T03:06:22.728Z,40.60
2019-05-01T03:08:54.286Z,38.67
2019-05-01T03:11:24.072Z,42.50
2019-05-01T03:13:54.393Z,41.87
2019-05-01T03:16:24.548Z,40.35
2019-05-01T03:18:57.431Z,40.80
2019-05-01T03:21:32.850Z,41.40
2019-05-01T03:24:16.135Z,44.50
2019-05-01T03:26:45.841Z,46.03
2019-05-01T03:29:15.594Z,40.87
2019-05-01T03:32:13.062Z,37.63
2019-05-01T03:34:17.152Z,40.37
2019-05-01T03:36:46.999Z,39.90
2019-05-01T03:39:17.219Z,38.23
2019-05-01T03:41:47.627Z,41.03
2019-05-01T03:44:17.617Z,39.85
2019-05-01T03:46:47.485Z,40.97
2019-05-01T03:49:18.236Z,41.15
2019-05-01T03:51:48.192Z,43.33
2019-05-01T03:54:17.948Z,39.87
2019-05-01T03:56:47.863Z,42.87
2019-05-01T03:59:17.904Z,42.30
2019-05-01T04:02:11.541Z,42.98
2019-05-01T04:04:41.576Z,40.37
2019-05-01T04:07:11.421Z,42.20
2019-05-01T04:09:41.841Z,41.80
2019-05-01T04:12:14.840Z,44.95
2019-05-01T04:14:45.129Z,43.77
2019-05-01T04:17:39.861Z,47.75
2019-05-01T04:20:10.329Z,52.73
2019-05-01T04:22:40.502Z,47.97
2019-05-01T04:25:10.425Z,45.77
2019-05-01T04:27:42.299Z,44.43
2019-05-01T04:30:19.713Z,49.83
2019-05-01T04:32:53.223Z,46.18
2019-05-01T04:35:30.726Z,48.53
2019-05-01T04:38:00.953Z,56.70
2019-05-01T04:40:30.712Z,56.90
2019-05-01T04:43:00.317Z,64.30
2019-05-01T04:45:30.568Z,64.73
2019-05-01T04:48:00.937Z,118.55
2019-05-01T04:50:30.640Z,130.00
2019-05-01T04:53:00.663Z,131.37
2019-05-01T04:55:30.433Z,129.20
2019-05-01T04:58:00.153Z,115.97
2019-05-01T05:00:29.874Z,119.50
2019-05-01T05:03:05.338Z,110.70
2019-05-01T05:05:37.180Z,105.87
2019-05-01T05:08:07.020Z,111.87
2019-05-01T05:10:37.866Z,101.10
2019-05-01T05:13:21.882Z,96.70
2019-05-01T05:16:17.253Z,109.43
2019-05-01T05:18:47.223Z,97.37
2019-05-01T05:21:16.880Z,100.60
2019-05-01T05:23:47.222Z,90.13
2019-05-01T05:26:18.002Z,89.70
2019-05-01T05:28:49.312Z,85.80
2019-05-01T05:31:19.913Z,95.33
2019-05-01T05:33:49.659Z,71.63
2019-05-01T05:36:20.555Z,74.67
2019-05-01T05:38:55.637Z,74.03
2019-05-01T05:41:25.683Z,66.53
2019-05-01T05:43:55.517Z,83.67
2019-05-01T05:46:25.756Z,74.07
2019-05-01T05:48:55.808Z,75.30
2019-05-01T05:52:01.339Z,84.77
2019-05-01T05:55:05.604Z,76.20
2019-05-01T05:58:00.441Z,74.42
2019-05-01T06:00:58.388Z,111.55
2019-05-01T06:03:50.325Z,79.00
2019-05-01T06:06:29.031Z,75.40
2019-05-01T06:08:58.789Z,69.60
2019-05-01T06:11:49.097Z,72.67
2019-05-01T06:14:44.899Z,73.37
2019-05-01T06:17:29.980Z,97.27
2019-05-01T06:20:06.512Z,84.83
2019-05-01T06:22:54.594Z,82.53
2019-05-01T06:25:31.407Z,94.47
2019-05-01T06:28:01.209Z,93.43
2019-05-01T06:30:31.497Z,87.43
2019-05-01T06:33:04.104Z,89.23
2019-05-01T06:35:34.135Z,96.87
2019-05-01T06:38:09.086Z,92.57
2019-05-01T06:40:42.684Z,100.43
2019-05-01T06:43:25.411Z,85.53
2019-05-01T06:46:13.031Z,88.35
2019-05-01T06:48:48.926Z,84.27
2019-05-01T06:51:40.857Z,86.17
2019-05-01T06:54:16.337Z,84.87
2019-05-01T06:56:43.716Z,99.60
2019-05-01T06:59:18.852Z,84.57
2019-05-01T07:01:53.274Z,88.83
2019-05-01T07:04:20.707Z,82.83
2019-05-01T07:06:51.169Z,94.67
2019-05-01T07:09:27.837Z,91.30
2019-05-01T07:11:54.481Z,84.92
2019-05-01T07:14:24.050Z,94.17
2019-05-01T07:16:53.721Z,90.23
2019-05-01T07:19:42.546Z,84.00
2019-05-01T07:22:12.313Z,95.40
2019-05-01T07:24:42.616Z,87.10
2019-05-01T07:27:13.263Z,94.60
2019-05-01T07:29:46.407Z,93.10
2019-05-01T07:32:16.427Z,90.77
2019-05-01T07:34:48.884Z,115.77
2019-05-01T07:37:20.884Z,96.47
2019-05-01T07:39:51.727Z,111.13
2019-05-01T07:42:32.755Z,102.77
2019-05-01T07:45:28.502Z,106.63
2019-05-01T07:48:00.984Z,103.77
2019-05-01T07:50:32.595Z,110.53
2019-05-01T07:53:02.185Z,107.00
2019-05-01T07:55:38.058Z,111.27
2019-05-01T07:58:10.435Z,121.93
2019-05-01T08:00:49.740Z,107.27
2019-05-01T08:03:19.949Z,119.93
2019-05-01T08:05:49.594Z,121.87
2019-05-01T08:08:19.324Z,122.03
2019-05-01T08:10:49.179Z,126.90
2019-05-01T08:13:19.026Z,110.63
2019-05-01T08:15:49.676Z,111.37
2019-05-01T08:18:27.804Z,110.17
2019-05-01T08:21:14.505Z,114.43
2019-05-01T08:23:47.138Z,115.30
2019-05-01T08:26:16.637Z,105.37
2019-05-01T08:29:11.386Z,103.10
2019-05-01T08:31:51.585Z,108.05
2019-05-01T08:34:25.360Z,96.70
2019-05-01T08:36:54.864Z,109.65
2019-05-01T08:39:24.550Z,107.23
2019-05-01T08:41:55.185Z,101.67
2019-05-01T08:44:29.585Z,105.93
2019-05-01T08:47:05.679Z,100.87
2019-05-01T08:49:49.808Z,95.60
2019-05-01T08:52:19.210Z,91.12
2019-05-01T08:54:48.945Z,96.00
2019-05-01T08:57:18.718Z,88.97
2019-05-01T08:59:48.448Z,83.37
2019-05-01T09:02:19.692Z,77.72
2019-05-01T09:05:01.359Z,77.13
2019-05-01T09:07:24.006Z,71.63
2019-05-01T09:09:52.203Z,67.83
2019-05-01T09:12:22.016Z,64.43
2019-05-01T09:14:51.781Z,66.72
2019-05-01T09:17:21.560Z,66.60
2019-05-01T09:19:51.319Z,60.83
2019-05-01T09:22:21.271Z,64.20
2019-05-01T09:24:51.065Z,64.70
2019-05-01T09:27:59.532Z,59.35
2019-05-01T09:30:39.961Z,62.00
2019-05-01T09:33:09.827Z,63.93
2019-05-01T09:35:40.200Z,59.37
2019-05-01T09:38:10.830Z,64.87
2019-05-01T09:40:40.623Z,59.20
2019-05-01T09:43:10.456Z,57.20
2019-05-01T09:45:40.236Z,58.07
2019-05-01T09:48:09.982Z,64.80
2019-05-01T09:50:44.296Z,57.03
2019-05-01T09:53:41.124Z,57.38
2019-05-01T09:56:22.652Z,57.83
2019-05-01T09:58:52.429Z,61.27
2019-05-01T10:01:24.553Z,48.77
2019-05-01T10:03:54.517Z,50.73
2019-05-01T10:06:24.418Z,48.55
2019-05-01T10:08:54.164Z,52.57
2019-05-01T10:11:24.011Z,52.30
2019-05-01T10:13:58.286Z,47.10
2019-05-01T10:16:25.155Z,49.40
2019-05-01T10:18:55.878Z,54.23
2019-05-01T10:21:27.134Z,52.53
2019-05-01T10:23:57.501Z,58.08
2019-05-01T10:26:31.899Z,54.50
2019-05-01T10:29:36.148Z,54.57
2019-05-01T10:32:29.827Z,52.03
2019-05-01T10:35:41.820Z,50.60
2019-05-01T10:38:04.713Z,59.73
2019-05-01T10:40:34.343Z,58.98
2019-05-01T10:43:04.316Z,61.57
2019-05-01T10:45:35.026Z,60.35
2019-05-01T10:48:05.026Z,61.70
2019-05-01T10:50:34.787Z,65.83
2019-05-01T10:53:14.629Z,70.40
2019-05-01T10:55:44.371Z,73.57
2019-05-01T10:58:18.413Z,67.55
2019-05-01T11:00:47.419Z,68.67
2019-05-01T11:03:17.258Z,69.57
2019-05-01T11:05:55.747Z,66.80
2019-05-01T11:08:21.059Z,68.57
2019-05-01T11:10:50.802Z,67.57
2019-05-01T11:13:20.810Z,64.90
2019-05-01T11:15:51.815Z,67.00
2019-05-01T11:18:21.727Z,64.80
2019-05-01T11:20:51.578Z,69.53
2019-05-01T11:23:21.308Z,65.73
2019-05-01T11:25:51.983Z,65.05
2019-05-01T11:28:21.675Z,64.65
2019-05-01T11:30:51.599Z,69.13
2019-05-01T11:33:35.377Z,66.30
2019-05-01T11:36:16.815Z,65.13
2019-05-01T11:38:54.432Z,66.37
2019-05-01T11:41:28.251Z,70.53
2019-05-01T11:43:58.026Z,69.17
2019-05-01T11:46:27.902Z,67.57
2019-05-01T11:48:57.662Z,64.47
2019-05-01T11:51:27.453Z,65.60
2019-05-01T11:53:57.243Z,66.92
2019-05-01T11:56:26.992Z,66.23
2019-05-01T11:58:56.744Z,64.43
2019-05-01T12:01:27.090Z,67.10
2019-05-01T12:03:57.063Z,68.50
2019-05-01T12:06:26.804Z,64.45
2019-05-01T12:08:56.455Z,65.00
2019-05-01T12:11:28.068Z,67.00
2019-05-01T12:13:57.727Z,60.90
2019-05-01T12:16:45.063Z,65.43
2019-05-01T12:19:14.758Z,63.80
2019-05-01T12:21:45.422Z,65.78
2019-05-01T12:24:15.281Z,65.53
2019-05-01T12:26:45.000Z,69.37
2019-05-01T12:29:14.875Z,63.97
2019-05-01T12:31:44.787Z,68.13
2019-05-01T12:34:14.512Z,67.62
2019-05-01T12:36:45.326Z,66.47
2019-05-01T12:39:16.789Z,64.80
2019-05-01T12:41:52.333Z,62.90
2019-05-01T12:44:22.299Z,64.60
2019-05-01T12:46:58.388Z,61.47
2019-05-01T12:49:28.169Z,64.97
2019-05-01T12:52:10.307Z,67.15
2019-05-01T12:54:41.644Z,61.80
2019-05-01T12:57:11.306Z,69.30
2019-05-01T12:59:41.057Z,69.97
2019-05-01T13:02:10.775Z,71.47
2019-05-01T13:04:40.510Z,82.13
2019-05-01T13:07:11.322Z,80.87
2019-05-01T13:09:41.155Z,73.77
2019-05-01T13:12:10.851Z,70.17
2019-05-01T13:14:40.520Z,76.90
2019-05-01T13:17:10.147Z,77.80
2019-05-01T13:19:39.821Z,72.92
2019-05-01T13:22:09.652Z,75.73
2019-05-01T13:24:50.066Z,73.97
2019-05-01T13:27:29.088Z,72.87
2019-05-01T13:30:05.412Z,75.40
2019-05-01T13:32:42.906Z,78.97
2019-05-01T13:35:12.516Z,75.92
2019-05-01T13:37:42.282Z,74.60
2019-05-01T13:40:13.178Z,72.87
2019-05-01T13:42:43.300Z,76.17
2019-05-01T13:45:14.637Z,73.57
2019-05-01T13:47:44.410Z,74.97
2019-05-01T13:50:14.206Z,76.75
2019-05-01T13:52:43.862Z,77.55
2019-05-01T13:55:14.998Z,76.10
2019-05-01T13:57:45.946Z,74.97
2019-05-01T14:00:15.903Z,74.13
2019-05-01T14:02:45.682Z,79.70
2019-05-01T14:05:15.774Z,76.97
2019-05-01T14:07:45.508Z,73.17
2019-05-01T14:10:16.019Z,72.85
2019-05-01T14:12:45.646Z,74.87
2019-05-01T14:15:15.592Z,69.90
2019-05-01T14:17:45.283Z,65.22
2019-05-01T14:20:25.848Z,68.63
2019-05-01T14:22:59.161Z,66.67
2019-05-01T14:25:48.005Z,69.43
2019-05-01T14:28:17.783Z,66.00
2019-05-01T14:30:47.540Z,69.50
2019-05-01T14:33:17.256Z,65.67
2019-05-01T14:35:46.980Z,75.00
2019-05-01T14:38:16.749Z,67.03
2019-05-01T14:40:46.580Z,70.53
2019-05-01T14:43:16.242Z,70.20
2019-05-01T14:45:45.935Z,61.80
2019-05-01T14:48:15.779Z,62.53
2019-05-01T14:50:45.946Z,58.40
2019-05-01T14:53:15.645Z,58.80
2019-05-01T14:55:45.411Z,63.73
2019-05-01T14:58:15.098Z,57.90
2019-05-01T15:00:45.021Z,58.40
2019-05-01T15:03:14.627Z,56.57
2019-05-01T15:05:46.203Z,55.10
2019-05-01T15:08:15.932Z,57.60
2019-05-01T15:10:45.599Z,63.27
2019-05-01T15:13:25.599Z,57.07
2019-05-01T15:16:23.455Z,57.37
2019-05-01T15:19:27.200Z,57.60
2019-05-01T15:21:56.943Z,57.20
2019-05-01T15:24:26.693Z,56.03
2019-05-01T15:27:00.107Z,58.73
2019-05-01T15:29:29.860Z,62.00
2019-05-01T15:31:59.595Z,59.65
2019-05-01T15:34:29.204Z,55.33
2019-05-01T15:36:58.894Z,55.10
2019-05-01T15:39:34.511Z,55.70
2019-05-01T15:42:23.272Z,60.00
2019-05-01T15:44:53.101Z,59.40
2019-05-01T15:47:23.355Z,61.47
2019-05-01T15:49:54.526Z,61.07
2019-05-01T15:52:24.300Z,57.40
2019-05-01T15:54:55.009Z,57.40
2019-05-01T15:57:24.787Z,57.13
2019-05-01T15:59:54.544Z,57.73
2019-05-01T16:02:24.486Z,59.67
2019-05-01T16:04:55.218Z,58.97
2019-05-01T16:07:24.998Z,60.03
2019-05-01T16:09:54.782Z,62.80
2019-05-01T16:12:30.569Z,63.08
2019-05-01T16:15:00.392Z,68.17
2019-05-01T16:17:30.016Z,70.87
2019-05-01T16:19:59.672Z,71.90
2019-05-01T16:22:30.075Z,68.78
2019-05-01T16:24:59.803Z,73.60
2019-05-01T16:27:29.451Z,74.57
2019-05-01T16:29:59.186Z,76.12
2019-05-01T16:32:29.171Z,84.07
2019-05-01T16:34:58.848Z,79.47
2019-05-01T16:37:28.795Z,81.27
2019-05-01T16:40:08.246Z,79.90
2019-05-01T16:42:40.225Z,74.03
2019-05-01T16:45:10.411Z,80.47
2019-05-01T16:47:40.316Z,80.67
2019-05-01T16:50:10.166Z,78.67
2019-05-01T16:52:40.673Z,73.80
2019-05-01T16:55:11.904Z,74.13
2019-05-01T16:57:41.976Z,70.85
2019-05-01T17:00:12.337Z,71.50
2019-05-01T17:03:16.227Z,79.03
2019-05-01T17:05:56.814Z,70.87
2019-05-01T17:08:44.041Z,68.87
2019-05-01T17:11:13.869Z,66.27
2019-05-01T17:13:44.087Z,62.73
2019-05-01T17:16:14.077Z,62.97
2019-05-01T17:18:43.731Z,56.53
2019-05-01T17:21:13.483Z,61.67
2019-05-01T17:23:43.287Z,58.53
2019-05-01T17:26:13.158Z,58.70
2019-05-01T17:28:43.137Z,58.05
2019-05-01T17:31:12.910Z,56.50
2019-05-01T17:33:42.870Z,56.83
2019-05-01T17:36:12.661Z,51.97
2019-05-01T17:38:49.233Z,54.00
2019-05-01T17:41:13.900Z,55.98
2019-05-01T17:43:44.760Z,58.53
2019-05-01T17:46:15.256Z,54.97
2019-05-01T17:48:44.931Z,54.60
2019-05-01T17:51:15.644Z,56.07
2019-05-01T17:53:45.388Z,53.85
2019-05-01T17:56:17.418Z,53.07
2019-05-01T17:58:46.587Z,54.20
2019-05-01T18:01:41.144Z,51.87
2019-05-01T18:04:19.415Z,50.77
2019-05-01T18:06:50.995Z,51.68
2019-05-01T18:09:20.874Z,51.03
2019-05-01T18:11:52.407Z,51.23
2019-05-01T18:14:22.168Z,51.58
2019-05-01T18:16:54.045Z,50.20
2019-05-01T18:19:24.125Z,49.42
2019-05-01T18:22:21.736Z,50.40
2019-05-01T18:24:59.703Z,50.07
2019-05-01T18:27:49.938Z,51.30
2019-05-01T18:30:20.732Z,54.43
2019-05-01T18:32:52.568Z,52.23
2019-05-01T18:35:22.440Z,54.50
2019-05-01T18:37:58.164Z,50.10
2019-05-01T18:40:38.731Z,51.47
2019-05-01T18:43:08.742Z,55.17
2019-05-01T18:45:55.542Z,50.53
2019-05-01T18:48:25.362Z,49.38
2019-05-01T18:50:56.382Z,50.73
2019-05-01T18:53:26.301Z,50.63
2019-05-01T18:55:56.087Z,54.17
2019-05-01T18:58:25.874Z,54.13
2019-05-01T19:00:55.670Z,52.47
2019-05-01T19:03:25.554Z,58.17
2019-05-01T19:05:55.575Z,52.23
2019-05-01T19:08:25.297Z,57.73
2019-05-01T19:10:55.620Z,53.30
2019-05-01T19:13:25.629Z,53.53
2019-05-01T19:15:55.374Z,52.47
2019-05-01T19:18:25.171Z,57.17
2019-05-01T19:20:59.646Z,57.93
2019-05-01T19:23:27.730Z,58.40
2019-05-01T19:26:03.613Z,53.00
2019-05-01T19:28:30.866Z,58.43
2019-05-01T19:31:00.960Z,54.93
2019-05-01T19:33:30.847Z,59.90
2019-05-01T19:36:02.688Z,55.83
2019-05-01T19:38:35.083Z,59.23
2019-05-01T19:41:08.258Z,60.52
2019-05-01T19:43:35.922Z,59.70
2019-05-01T19:46:06.776Z,57.17
2019-05-01T19:48:36.595Z,61.13
2019-05-01T19:51:07.250Z,58.53
2019-05-01T19:53:37.189Z,60.87
2019-05-01T19:56:07.502Z,61.00
2019-05-01T19:58:37.324Z,61.95
2019-05-01T20:01:07.113Z,59.47
2019-05-01T20:03:38.629Z,55.50
2019-05-01T20:06:08.580Z,59.17
2019-05-01T20:08:38.598Z,63.57
2019-05-01T20:11:09.675Z,61.00
2019-05-01T20:13:40.856Z,66.23
2019-05-01T20:16:11.333Z,61.88
2019-05-01T20:18:41.097Z,62.97
2019-05-01T20:21:11.856Z,68.05
2019-05-01T20:23:41.715Z,63.17
2019-05-01T20:26:11.597Z,66.80
2019-05-01T20:28:41.214Z,66.93
2019-05-01T20:31:10.975Z,64.40
2019-05-01T20:33:44.187Z,67.90
2019-05-01T20:36:12.139Z,67.23
2019-05-01T20:38:42.963Z,65.05
2019-05-01T20:41:15.957Z,69.90
2019-05-01T20:43:45.403Z,67.17
2019-05-01T20:46:16.269Z,71.30
2019-05-01T20:48:46.071Z,71.27
2019-05-01T20:51:16.047Z,72.97
2019-05-01T20:53:45.870Z,71.43
2019-05-01T20:56:25.028Z,72.63
2019-05-01T20:58:57.715Z,75.17
2019-05-01T21:01:28.245Z,75.70
2019-05-01T21:04:08.029Z,77.60
2019-05-01T21:06:43.772Z,76.82
2019-05-01T21:09:26.604Z,82.20
2019-05-01T21:12:05.102Z,79.97
2019-05-01T21:14:29.195Z,76.00
2019-05-01T21:16:59.234Z,75.83
2019-05-01T21:19:32.489Z,80.43
2019-05-01T21:22:00.338Z,81.17
2019-05-01T21:24:30.051Z,83.65
2019-05-01T21:26:59.804Z,81.23
2019-05-01T21:29:29.536Z,82.05
2019-05-01T21:31:59.367Z,82.30
2019-05-01T21:34:29.108Z,81.28
2019-05-01T21:36:58.935Z,81.47
2019-05-01T21:39:28.677Z,83.20
2019-05-01T21:41:58.325Z,85.77
2019-05-01T21:44:28.047Z,81.00
2019-05-01T21:46:58.174Z,83.70
2019-05-01T21:49:28.868Z,82.53
2019-05-01T21:51:58.612Z,81.50
2019-05-01T21:54:28.260Z,80.70
2019-05-01T21:56:57.959Z,80.47
2019-05-01T21:59:28.633Z,73.72
2019-05-01T22:01:58.439Z,79.90
2019-05-01T22:04:31.964Z,71.72
2019-05-01T22:07:00.412Z,72.90
2019-05-01T22:09:31.795Z,75.80
2019-05-01T22:12:01.542Z,67.47
2019-05-01T22:14:45.473Z,70.20
2019-05-01T22:17:33.359Z,56.13
2019-05-01T22:20:04.679Z,62.58
2019-05-01T22:22:44.377Z,60.80
2019-05-01T22:25:22.454Z,63.65
2019-05-01T22:27:58.073Z,57.27
2019-05-01T22:30:35.756Z,59.98
2019-05-01T22:33:05.672Z,60.50
2019-05-01T22:35:44.589Z,55.38
2019-05-01T22:38:14.388Z,54.80
2019-05-01T22:41:09.144Z,57.80
2019-05-01T22:43:39.081Z,58.27
2019-05-01T22:46:12.903Z,57.73
2019-05-01T22:48:42.606Z,56.43
2019-05-01T22:51:23.572Z,61.50
2019-05-01T22:53:56.488Z,54.87
2019-05-01T22:56:26.462Z,61.50
2019-05-01T22:58:56.071Z,56.43
2019-05-01T23:01:26.649Z,58.00
2019-05-01T23:03:58.609Z,64.50
2019-05-01T23:06:28.980Z,68.15
2019-05-01T23:08:59.710Z,68.67
2019-05-01T23:11:31.795Z,69.67
2019-05-01T23:14:01.468Z,73.47
2019-05-01T23:16:35.733Z,72.53
2019-05-01T23:19:05.488Z,75.97
2019-05-01T23:21:35.185Z,76.77
2019-05-01T23:24:05.420Z,75.60
2019-05-01T23:26:35.077Z,83.77
2019-05-01T23:29:04.882Z,80.60
2019-05-01T23:31:34.620Z,75.17
2019-05-01T23:34:04.513Z,78.53
2019-05-01T23:36:34.171Z,77.40
2019-05-01T23:39:05.013Z,75.73
2019-05-01T23:41:45.275Z,71.07
2019-05-01T23:44:06.221Z,77.33
2019-05-01T23:46:36.019Z,77.27
2019-05-01T23:49:05.788Z,80.50
2019-05-01T23:51:35.470Z,76.77
2019-05-01T23:54:05.493Z,71.60
2019-05-01T23:56:36.356Z,76.30
2019-05-01T23:59:06.120Z,72.27
